Time;durP1;ratioP1;P1;durP2;ratioP2;P2;SDS_P1;SDS_P2;PMS_P1;PMS_P2;Temp;Humidity;BMP_temperature;BMP_pressure;BME280_temperature;BME280_humidity;BME280_pressure;Samples;Min_cycle;Max_cycle;Signal;HPM_P1;HPM_P2
2021/10/10 00:01:42;;;;;;;27.80;17.08;;;;;;;7.30;57.31;101770.03;4935815;28;96946;-75
2021/10/10 00:04:08;;;;;;;32.72;18.30;;;;;;;7.30;57.46;101771.72;4933358;28;100513;-75
2021/10/10 00:06:35;;;;;;;32.00;19.15;;;;;;;7.29;57.33;101767.38;4924772;28;101345;-76
2021/10/10 00:09:00;;;;;;;29.85;17.38;;;;;;;7.24;57.47;101770.88;4931001;28;97215;-75
2021/10/10 00:11:26;;;;;;;30.42;17.75;;;;;;;7.21;57.97;101772.59;4937090;28;96825;-75
2021/10/10 00:13:51;;;;;;;27.47;17.73;;;;;;;7.21;57.34;101765.66;4934338;28;100135;-75
2021/10/10 00:16:17;;;;;;;33.05;19.00;;;;;;;7.15;58.00;101760.38;4928220;28;101509;-76
2021/10/10 00:18:42;;;;;;;32.28;17.85;;;;;;;7.16;57.78;101759.53;4953345;28;97172;-74
2021/10/10 00:21:08;;;;;;;28.57;18.00;;;;;;;7.17;58.08;101756.03;4924800;28;96788;-75
2021/10/10 00:23:33;;;;;;;30.93;18.43;;;;;;;7.13;58.25;101762.13;4929487;28;100858;-75
2021/10/10 00:25:59;;;;;;;29.40;17.73;;;;;;;7.06;57.95;101759.47;4929982;28;101121;-75
2021/10/10 00:28:25;;;;;;;27.55;17.42;;;;;;;7.03;59.03;101758.59;4936661;28;96729;-76
2021/10/10 00:30:50;;;;;;;28.87;17.30;;;;;;;6.96;58.90;101758.59;4932372;28;97278;-75
2021/10/10 00:33:16;;;;;;;31.00;17.40;;;;;;;6.98;58.73;101755.13;4930638;28;101565;-75
2021/10/10 00:35:41;;;;;;;27.40;17.23;;;;;;;7.03;58.10;101749.91;4933095;28;101484;-75
2021/10/10 00:38:07;;;;;;;25.70;16.23;;;;;;;7.02;57.99;101748.16;4933574;28;96831;-76
2021/10/10 00:40:32;;;;;;;26.10;17.60;;;;;;;7.05;58.34;101744.69;4946969;28;97665;-75
2021/10/10 00:42:58;;;;;;;29.70;17.27;;;;;;;7.01;58.72;101749.91;4951534;28;97410;-75
2021/10/10 00:45:23;;;;;;;32.03;18.70;;;;;;;6.96;58.67;101754.25;4936364;28;97839;-74
2021/10/10 00:47:49;;;;;;;30.47;17.57;;;;;;;6.98;58.55;101749.91;4919618;28;97137;-75
2021/10/10 00:50:15;;;;;;;25.48;16.90;;;;;;;6.89;58.82;101744.63;4923961;28;97068;-75
2021/10/10 00:52:43;;;;;;;27.43;17.07;;;;;;;6.90;58.81;101748.13;4962817;28;97452;-75
2021/10/10 00:55:10;;;;;;;27.87;16.90;;;;;;;6.82;59.08;101742.88;4920815;28;100978;-75
2021/10/10 00:57:38;;;;;;;26.70;16.75;;;;;;;6.85;58.76;101745.50;4924711;28;96763;-75
2021/10/10 01:00:05;;;;;;;31.43;17.50;;;;;;;6.94;58.24;101745.50;4944949;28;96874;-75
2021/10/10 01:02:32;;;;;;;35.17;16.97;;;;;;;6.80;58.68;101749.81;4935229;28;101247;-75
2021/10/10 01:04:57;;;;;;;27.90;17.40;;;;;;;6.76;58.27;101742.84;4942665;28;98108;-75
2021/10/10 01:07:25;;;;;;;29.58;17.17;;;;;;;6.80;58.56;101741.97;4946065;28;96789;-75
2021/10/10 01:09:50;;;;;;;28.60;17.90;;;;;;;6.80;58.03;101742.84;4939126;28;97270;-75
2021/10/10 01:12:16;;;;;;;30.20;17.33;;;;;;;6.75;58.58;101738.50;4954181;28;97528;-75
2021/10/10 01:14:41;;;;;;;26.37;16.17;;;;;;;6.74;58.44;101732.38;4942295;28;97563;-75
2021/10/10 01:17:07;;;;;;;29.63;18.13;;;;;;;6.63;58.96;101731.47;4959079;28;97092;-75
2021/10/10 01:19:34;;;;;;;26.97;16.10;;;;;;;6.71;58.39;101734.13;4930057;28;97083;-79
2021/10/10 01:22:01;;;;;;;29.50;17.87;;;;;;;6.95;57.97;101733.31;4917707;28;101763;-76
2021/10/10 01:24:27;;;;;;;31.90;18.17;;;;;;;6.72;58.48;101726.31;4949179;28;97944;-75
2021/10/10 01:26:53;;;;;;;24.53;16.90;;;;;;;6.66;58.80;101722.78;4951314;28;97248;-75
2021/10/10 01:29:19;;;;;;;30.27;16.67;;;;;;;6.62;58.54;101724.50;4928453;28;97368;-75
2021/10/10 01:31:44;;;;;;;27.80;17.00;;;;;;;6.55;59.21;101717.53;4918172;28;102237;-76
2021/10/10 01:34:10;;;;;;;34.50;18.40;;;;;;;6.60;58.71;101717.53;4909663;28;101607;-75
2021/10/10 01:36:35;;;;;;;33.33;19.00;;;;;;;6.54;58.89;101714.06;4934145;28;97020;-75
2021/10/10 01:39:02;;;;;;;32.40;19.23;;;;;;;6.39;59.61;101713.09;4935327;28;97611;-75
2021/10/10 01:41:27;;;;;;;30.70;17.57;;;;;;;6.34;59.19;101719.16;4951712;28;98033;-75
2021/10/10 01:43:53;;;;;;;30.97;18.73;;;;;;;6.37;59.45;101720.03;4930691;28;101350;-75
2021/10/10 01:46:19;;;;;;;30.17;19.20;;;;;;;6.35;59.56;101709.59;4908870;28;96924;-75
2021/10/10 01:48:44;;;;;;;34.73;19.60;;;;;;;6.30;60.08;101704.34;4921497;28;97240;-75
2021/10/10 01:51:14;;;;;;;32.53;18.93;;;;;;;6.35;59.53;101712.22;4923939;28;101644;-75
2021/10/10 01:53:40;;;;;;;28.97;19.17;;;;;;;6.35;59.79;101701.78;4935414;28;97867;-76
2021/10/10 01:56:06;;;;;;;29.93;19.47;;;;;;;6.37;59.60;101705.28;4928699;28;96829;-75
2021/10/10 01:58:32;;;;;;;31.67;20.57;;;;;;;6.26;59.46;101704.34;4933140;28;97009;-75
2021/10/10 02:00:58;;;;;;;32.80;19.43;;;;;;;6.16;60.25;101707.75;4936763;28;98605;-75
2021/10/10 02:03:24;;;;;;;35.90;20.77;;;;;;;6.14;60.07;101710.34;4934370;28;97327;-75
2021/10/10 02:05:50;;;;;;;31.33;19.23;;;;;;;6.13;59.67;101709.47;4950645;28;97271;-74
2021/10/10 02:08:16;;;;;;;32.07;19.43;;;;;;;6.13;60.05;101709.47;4933894;28;97666;-75
2021/10/10 02:10:42;;;;;;;31.43;20.03;;;;;;;6.06;60.24;101709.44;4930718;28;100994;-75
2021/10/10 02:13:07;;;;;;;29.33;18.83;;;;;;;6.08;60.31;101710.31;4917585;28;101083;-74
2021/10/10 02:15:33;;;;;;;28.27;18.00;;;;;;;6.08;60.36;101707.72;4935284;28;97306;-75
2021/10/10 02:17:58;;;;;;;31.83;18.13;;;;;;;6.02;60.40;101697.22;4929219;28;97176;-75
2021/10/10 02:20:24;;;;;;;31.70;17.67;;;;;;;6.01;60.44;101701.56;4919921;28;101277;-75
2021/10/10 02:22:50;;;;;;;30.43;18.90;;;;;;;6.04;60.29;101698.97;4952638;28;96713;-75
2021/10/10 02:25:15;;;;;;;29.20;18.87;;;;;;;5.98;60.57;101693.72;4930817;28;97307;-75
2021/10/10 02:27:41;;;;;;;30.53;19.43;;;;;;;5.96;60.25;101687.63;4949646;28;97121;-75
2021/10/10 02:30:07;;;;;;;30.80;18.87;;;;;;;5.94;60.65;101699.78;4924687;28;100900;-75
2021/10/10 02:32:33;;;;;;;32.97;19.53;;;;;;;5.97;60.28;101693.72;4949402;28;100346;-75
2021/10/10 02:34:58;;;;;;;29.27;17.87;;;;;;;5.93;60.37;101687.59;4941274;28;97355;-75
2021/10/10 02:37:24;;;;;;;30.27;18.83;;;;;;;5.85;60.17;101682.31;4922986;28;97220;-75
2021/10/10 02:39:51;;;;;;;29.23;19.03;;;;;;;5.87;60.85;101684.91;4935244;28;101851;-75
2021/10/10 02:42:17;;;;;;;27.43;18.67;;;;;;;5.84;60.73;101687.50;4940394;28;97829;-75
2021/10/10 02:44:43;;;;;;;32.27;20.03;;;;;;;5.83;61.19;101688.38;4923821;28;97262;-74
2021/10/10 02:47:08;;;;;;;31.87;18.03;;;;;;;5.81;60.88;101685.75;4922758;28;97163;-75
2021/10/10 02:49:34;;;;;;;32.10;18.23;;;;;;;5.83;60.83;101685.78;4936201;28;99824;-75
2021/10/10 02:51:59;;;;;;;25.13;17.17;;;;;;;5.80;60.66;101685.75;4951761;28;97595;-75
2021/10/10 02:54:25;;;;;;;32.07;18.47;;;;;;;5.71;61.39;101683.09;4916797;28;97316;-76
2021/10/10 02:56:50;;;;;;;34.10;20.07;;;;;;;5.84;61.00;101683.16;4924969;28;97726;-75
2021/10/10 02:59:16;;;;;;;29.73;18.23;;;;;;;5.72;61.10;101680.47;4929022;28;100867;-75
2021/10/10 03:01:41;;;;;;;31.77;18.67;;;;;;;5.47;61.91;101675.91;4933846;28;100911;-75
2021/10/10 03:04:07;;;;;;;31.27;19.60;;;;;;;5.62;61.04;101679.53;4929965;28;97258;-75
2021/10/10 03:06:32;;;;;;;31.50;19.87;;;;;;;5.40;61.59;101683.69;4902884;28;97090;-76
2021/10/10 03:08:58;;;;;;;32.57;20.07;;;;;;;5.33;61.84;101675.81;4910501;28;101296;-75
2021/10/10 03:11:23;;;;;;;34.50;20.40;;;;;;;5.32;62.32;101677.53;4928457;28;101016;-75
2021/10/10 03:13:49;;;;;;;36.03;20.13;;;;;;;5.25;62.48;101675.75;4908669;28;97107;-75
2021/10/10 03:16:14;;;;;;;34.87;19.93;;;;;;;5.32;62.36;101672.31;4931913;28;97164;-75
2021/10/10 03:18:40;;;;;;;36.83;20.03;;;;;;;5.33;62.08;101665.41;4927324;28;97356;-75
2021/10/10 03:21:06;;;;;;;35.37;20.93;;;;;;;5.43;61.64;101664.63;4958657;28;97307;-75
2021/10/10 03:23:31;;;;;;;31.67;19.37;;;;;;;5.26;62.75;101668.78;4946528;28;96742;-75
2021/10/10 03:25:57;;;;;;;35.03;19.10;;;;;;;5.37;61.93;101672.38;4919406;28;97261;-75
2021/10/10 03:28:22;;;;;;;35.67;20.13;;;;;;;5.26;62.13;101666.19;4942684;28;97654;-76
2021/10/10 03:30:48;;;;;;;31.00;19.70;;;;;;;4.93;62.92;101660.69;4945906;28;98097;-75
2021/10/10 03:33:14;;;;;;;30.13;19.67;;;;;;;4.98;63.08;101663.34;4921805;28;97058;-76
2021/10/10 03:35:39;;;;;;;39.70;20.20;;;;;;;4.92;63.26;101653.72;4921250;28;97095;-76
2021/10/10 03:38:05;;;;;;;32.30;19.67;;;;;;;5.05;63.15;101656.47;4955504;28;97533;-75
2021/10/10 03:40:31;;;;;;;34.03;19.67;;;;;;;5.08;63.25;101648.69;4934771;28;98074;-75
2021/10/10 03:42:56;;;;;;;32.97;20.30;;;;;;;5.04;63.11;101646.91;4933078;28;97224;-75
2021/10/10 03:45:22;;;;;;;32.97;19.47;;;;;;;4.99;63.32;101647.72;4946675;28;97423;-75
2021/10/10 03:47:47;;;;;;;36.93;20.87;;;;;;;4.99;63.10;101639.91;4938322;28;101027;-75
2021/10/10 03:50:13;;;;;;;29.70;19.10;;;;;;;4.96;63.10;101641.63;4950312;28;97657;-75
2021/10/10 03:52:41;;;;;;;32.23;19.17;;;;;;;4.91;63.71;101638.09;4940524;28;97603;-75
2021/10/10 03:57:48;;;;;;;31.40;20.27;;;;;;;4.91;63.28;101638.97;4942182;28;97735;-75
2021/10/10 04:00:14;;;;;;;31.13;19.33;;;;;;;4.96;62.95;101628.59;4915962;28;101256;-75
2021/10/10 04:02:41;;;;;;;31.00;19.23;;;;;;;4.93;62.69;101637.25;4922329;28;97015;-75
2021/10/10 04:05:39;;;;;;;38.93;21.70;;;;;;;4.96;62.98;101626.88;4930024;28;97110;-75
2021/10/10 04:08:04;;;;;;;34.97;21.57;;;;;;;4.91;63.00;101632.88;4952998;28;97501;-75
2021/10/10 04:10:30;;;;;;;35.63;21.10;;;;;;;4.84;63.49;101629.34;4930339;28;101629;-76
2021/10/10 04:12:56;;;;;;;33.17;20.37;;;;;;;4.82;63.36;101628.47;4936290;28;97124;-76
2021/10/10 04:15:21;;;;;;;31.17;20.53;;;;;;;4.84;63.24;101639.75;4925221;28;97303;-75
2021/10/10 04:17:47;;;;;;;33.30;19.60;;;;;;;4.75;63.69;101631.88;4927747;28;101587;-75
2021/10/10 04:20:14;;;;;;;31.60;19.93;;;;;;;4.78;63.48;101625.81;4935774;28;97806;-75
2021/10/10 04:22:41;;;;;;;31.93;19.63;;;;;;;4.73;63.56;101626.63;4921764;28;97510;-75
2021/10/10 04:25:08;;;;;;;35.83;21.37;;;;;;;4.72;63.62;101619.69;4926905;28;97025;-75
2021/10/10 04:27:35;;;;;;;30.50;19.63;;;;;;;4.80;63.24;101619.78;4918023;28;101356;-75
2021/10/10 04:30:09;;;;;;;30.37;20.27;;;;;;;4.67;63.85;101621.38;4948987;28;97968;-75
2021/10/10 04:32:34;;;;;;;29.50;18.97;;;;;;;4.62;63.77;101620.44;4936781;28;96907;-75
2021/10/10 04:35:00;;;;;;;30.83;20.10;;;;;;;4.62;63.91;101614.38;4929697;28;98006;-75
2021/10/10 04:37:25;;;;;;;35.60;19.47;;;;;;;4.67;63.74;101618.78;4908607;28;101661;-75
2021/10/10 04:39:51;;;;;;;43.73;20.30;;;;;;;4.62;63.84;101614.38;4926625;28;102059;-75
2021/10/10 04:42:17;;;;;;;31.20;20.37;;;;;;;4.67;63.70;101615.31;4929983;28;96999;-74
2021/10/10 04:44:42;;;;;;;33.40;20.43;;;;;;;4.64;63.78;101616.13;4935278;28;97071;-75
2021/10/10 04:47:08;;;;;;;32.00;20.33;;;;;;;4.60;63.97;101616.09;4949287;28;98483;-75
2021/10/10 04:49:34;;;;;;;36.80;20.90;;;;;;;4.57;64.05;101619.53;4930301;28;99982;-76
2021/10/10 04:52:02;;;;;;;30.50;20.23;;;;;;;4.67;63.37;101623.09;4949482;28;97132;-75
2021/10/10 04:54:28;;;;;;;34.27;21.20;;;;;;;4.46;63.61;101632.41;4912626;28;97432;-75
2021/10/10 04:56:54;;;;;;;36.47;20.37;;;;;;;4.51;63.64;101632.47;4922726;28;98475;-75
2021/10/10 04:59:19;;;;;;;38.47;21.50;;;;;;;4.49;63.65;101631.56;4931180;28;97973;-75
2021/10/10 05:01:45;;;;;;;31.70;20.00;;;;;;;4.39;63.99;101633.16;4932233;28;97281;-75
2021/10/10 05:04:10;;;;;;;34.83;20.23;;;;;;;4.59;63.36;101636.00;4922925;28;97178;-75
2021/10/10 05:06:36;;;;;;;32.00;20.07;;;;;;;4.40;63.86;101632.34;4916570;28;97537;-75
2021/10/10 05:09:01;;;;;;;29.80;19.90;;;;;;;4.53;63.85;101638.53;4928325;28;101037;-75
2021/10/10 05:11:27;;;;;;;33.47;20.23;;;;;;;4.49;63.88;101635.03;4938122;28;97290;-75
2021/10/10 05:13:52;;;;;;;33.67;21.03;;;;;;;4.44;63.57;101631.50;4916361;28;97522;-75
2021/10/10 05:16:18;;;;;;;36.40;21.40;;;;;;;4.43;63.87;101636.72;4929444;28;101686;-75
2021/10/10 05:18:43;;;;;;;37.83;21.00;;;;;;;4.43;64.08;101641.91;4929159;28;101304;-75
2021/10/10 05:21:09;;;;;;;31.77;20.20;;;;;;;4.40;63.92;101647.06;4940483;28;96946;-75
2021/10/10 05:23:34;;;;;;;37.27;21.93;;;;;;;4.28;64.70;101642.59;4932707;28;96956;-75
2021/10/10 05:26:01;;;;;;;42.13;21.73;;;;;;;4.43;63.81;101639.31;4939100;28;97427;-75
2021/10/10 05:28:26;;;;;;;33.53;20.30;;;;;;;4.43;64.04;101634.09;4916080;28;101601;-76
2021/10/10 05:30:52;;;;;;;35.93;21.50;;;;;;;4.49;63.78;101642.84;4927575;28;96890;-75
2021/10/10 05:33:20;;;;;;;36.20;22.23;;;;;;;4.48;63.71;101651.50;4933012;28;97202;-75
2021/10/10 05:35:46;;;;;;;34.87;22.00;;;;;;;4.52;63.89;101655.00;4921586;28;101039;-75
2021/10/10 05:38:12;;;;;;;41.07;22.97;;;;;;;4.47;64.19;101654.94;4934277;28;100483;-75
2021/10/10 05:40:37;;;;;;;32.97;21.23;;;;;;;4.53;64.04;101649.81;4927268;28;97149;-75
2021/10/10 05:43:03;;;;;;;30.10;20.33;;;;;;;4.60;64.56;101649.91;4916579;28;97208;-75
2021/10/10 05:45:29;;;;;;;32.23;20.43;;;;;;;4.65;63.61;101651.69;4916203;28;101709;-76
2021/10/10 05:47:54;;;;;;;34.37;21.13;;;;;;;4.78;63.61;101652.72;4931726;28;101550;-74
2021/10/10 05:50:20;;;;;;;38.47;23.33;;;;;;;4.82;62.90;101657.09;4923724;28;97048;-75
2021/10/10 05:52:45;;;;;;;39.80;23.40;;;;;;;4.92;63.58;101651.13;4916033;28;97114;-75
2021/10/10 05:55:14;;;;;;;35.87;21.63;;;;;;;5.88;61.00;101645.00;4945529;28;101336;-75
2021/10/10 05:57:46;;;;;;;46.53;22.97;;;;;;;6.94;57.68;101646.31;4936901;28;97103;-75
2021/10/10 06:00:14;;;;;;;37.87;21.93;;;;;;;7.42;56.06;101649.00;4917276;28;96830;-75
2021/10/10 06:02:41;;;;;;;35.97;23.13;;;;;;;7.44;56.04;101634.16;4911037;28;96982;-74
2021/10/10 06:05:08;;;;;;;33.87;21.13;;;;;;;7.11;56.95;101642.88;4913725;28;101455;-75
2021/10/10 06:07:34;;;;;;;37.50;23.33;;;;;;;6.91;58.08;101646.31;4929834;28;96989;-74
2021/10/10 06:09:59;;;;;;;35.20;21.73;;;;;;;6.80;57.78;101648.03;4914068;28;97746;-75
2021/10/10 06:12:25;;;;;;;38.30;22.27;;;;;;;7.12;57.32;101644.59;4917178;28;97757;-74
2021/10/10 06:14:51;;;;;;;37.87;23.30;;;;;;;8.13;55.13;101648.00;4940098;28;97986;-74
2021/10/10 06:17:18;;;;;;;40.97;22.70;;;;;;;8.22;54.09;101647.09;4916024;28;100874;-74
2021/10/10 06:19:44;;;;;;;42.27;23.60;;;;;;;7.90;55.07;101644.56;4926837;28;97272;-75
2021/10/10 06:22:10;;;;;;;39.63;22.58;;;;;;;7.52;56.14;101644.63;4943415;28;97023;-75
2021/10/10 06:24:35;;;;;;;36.63;23.00;;;;;;;7.65;55.82;101649.84;4935335;28;97463;-76
2021/10/10 06:27:03;;;;;;;36.67;22.08;;;;;;;7.79;55.48;101641.97;4936336;28;97952;-75
2021/10/10 06:29:28;;;;;;;35.05;21.98;;;;;;;7.78;55.49;101645.47;4919665;28;97828;-76
2021/10/10 06:31:54;;;;;;;32.10;20.80;;;;;;;7.93;55.42;101655.91;4916235;28;96808;-75
2021/10/10 06:34:19;;;;;;;34.45;19.90;;;;;;;8.09;55.08;101648.91;4920335;28;101157;-75
2021/10/10 06:36:45;;;;;;;30.40;19.70;;;;;;;8.47;54.57;101642.69;4921063;28;98456;-75
2021/10/10 06:39:10;;;;;;;32.00;20.48;;;;;;;8.92;52.86;101638.06;4918457;28;96865;-75
2021/10/10 06:41:36;;;;;;;28.90;19.88;;;;;;;8.67;53.84;101644.31;4934736;28;97828;-75
2021/10/10 06:44:01;;;;;;;32.95;20.42;;;;;;;9.27;52.52;101645.69;4917591;28;98041;-74
2021/10/10 06:46:27;;;;;;;28.17;18.70;;;;;;;9.32;53.00;101644.81;4916725;28;97897;-75
2021/10/10 06:48:52;;;;;;;30.73;20.30;;;;;;;9.24;52.45;101644.84;4924272;28;97939;-75
2021/10/10 06:51:18;;;;;;;28.38;19.73;;;;;;;9.49;52.22;101643.78;4916749;28;97372;-75
2021/10/10 06:53:43;;;;;;;27.50;18.83;;;;;;;9.52;52.00;101645.50;4916287;28;101448;-75
2021/10/10 06:56:09;;;;;;;28.13;19.45;;;;;;;9.70;50.84;101641.84;4929116;28;100967;-75
2021/10/10 06:58:34;;;;;;;31.10;20.33;;;;;;;9.69;50.05;101640.13;4920816;28;96850;-76
2021/10/10 07:01:00;;;;;;;34.08;20.25;;;;;;;10.32;49.86;101639.47;4925665;28;97774;-75
2021/10/10 07:03:26;;;;;;;31.45;20.73;;;;;;;10.43;48.46;101643.69;4940338;28;97709;-76
2021/10/10 07:05:51;;;;;;;31.60;20.13;;;;;;;10.78;48.60;101637.09;4943133;28;100909;-75
2021/10/10 07:08:17;;;;;;;32.50;19.90;;;;;;;11.16;47.54;101633.03;4928773;28;97073;-74
2021/10/10 07:10:42;;;;;;;30.05;21.50;;;;;;;11.20;46.68;101637.38;4914747;28;97114;-74
2021/10/10 07:13:08;;;;;;;29.08;20.55;;;;;;;11.26;45.78;101632.03;4931198;28;98035;-75
2021/10/10 07:15:34;;;;;;;30.17;21.05;;;;;;;11.88;45.02;101642.38;4938611;28;101039;-74
2021/10/10 07:18:02;;;;;;;29.45;21.27;;;;;;;12.16;45.33;101636.59;4945083;28;98660;-74
2021/10/10 07:23:28;;;;;;;30.42;18.75;;;;;;;12.85;43.04;101630.69;4932659;28;101206;-75
2021/10/10 07:25:59;;;;;;;26.73;18.85;;;;;;;13.28;42.13;101629.72;4913048;28;101658;-74
2021/10/10 07:28:24;;;;;;;27.42;18.52;;;;;;;13.95;40.62;101628.91;4946891;28;98178;-74
2021/10/10 07:30:51;;;;;;;26.92;17.55;;;;;;;15.36;38.84;101628.19;4926022;28;98458;-75
2021/10/10 07:33:17;;;;;;;27.60;18.00;;;;;;;15.96;37.17;101628.78;4927501;28;98527;-74
2021/10/10 07:35:42;;;;;;;25.42;17.67;;;;;;;16.04;36.80;101632.03;4910595;28;99166;-75
2021/10/10 07:38:08;;;;;;;24.60;18.70;;;;;;;16.85;35.73;101625.47;4930294;28;98268;-75
2021/10/10 07:40:34;;;;;;;23.33;17.15;;;;;;;16.84;35.54;101623.75;4947236;28;96964;-76
2021/10/10 07:42:59;;;;;;;23.50;18.40;;;;;;;16.86;35.61;101629.84;4931314;28;100319;-76
2021/10/10 07:45:26;;;;;;;25.35;17.70;;;;;;;17.38;35.65;101629.53;4933839;28;97320;-76
2021/10/10 07:47:52;;;;;;;24.58;17.70;;;;;;;18.03;33.52;101623.16;4901097;28;97318;-76
2021/10/10 07:50:21;;;;;;;27.08;18.13;;;;;;;18.89;31.82;101621.03;4944531;28;96892;-77
2021/10/10 07:52:47;;;;;;;23.30;18.58;;;;;;;19.76;31.49;101623.81;4933927;28;101546;-76
2021/10/10 07:55:14;;;;;;;24.33;18.17;;;;;;;21.41;28.91;101620.03;4931856;28;101181;-76
2021/10/10 07:57:39;;;;;;;26.42;17.80;;;;;;;21.20;29.14;101615.91;4917234;28;97250;-76
2021/10/10 08:00:06;;;;;;;22.17;17.85;;;;;;;22.15;28.33;101616.41;4934832;28;96853;-77
2021/10/10 08:02:50;;;;;;;27.13;18.17;;;;;;;23.56;26.11;101611.78;4950131;28;97808;-76
2021/10/10 08:05:17;;;;;;;22.80;18.52;;;;;;;23.03;26.65;101613.53;4915599;28;101511;-77
2021/10/10 08:07:42;;;;;;;21.45;17.98;;;;;;;24.05;26.23;101613.72;4931245;28;97264;-76
2021/10/10 08:10:08;;;;;;;21.10;18.60;;;;;;;25.22;24.48;101608.84;4930005;28;97173;-76
2021/10/10 08:12:34;;;;;;;22.65;19.13;;;;;;;24.55;25.18;101605.75;4930987;28;102876;-76
2021/10/10 08:14:59;;;;;;;22.17;19.17;;;;;;;24.06;25.14;101611.94;4922532;28;101059;-75
2021/10/10 08:17:25;;;;;;;26.73;19.40;;;;;;;24.01;24.93;101614.94;4925906;28;96737;-78
2021/10/10 08:19:50;;;;;;;22.33;17.10;;;;;;;24.25;25.25;101601.59;4943371;28;96843;-77
2021/10/10 08:22:17;;;;;;;24.30;18.35;;;;;;;24.06;25.36;101615.47;4938559;28;97424;-77
2021/10/10 08:24:43;;;;;;;20.80;18.35;;;;;;;24.22;25.83;101607.19;4916469;28;101714;-77
2021/10/10 08:27:08;;;;;;;23.90;18.50;;;;;;;24.69;25.23;101602.06;4929976;28;96829;-77
2021/10/10 08:29:34;;;;;;;22.38;18.63;;;;;;;25.43;24.39;101610.88;4931395;28;96780;-79
2021/10/10 08:31:59;;;;;;;20.20;17.77;;;;;;;25.66;23.89;101598.34;4905038;28;101399;-77
2021/10/10 08:34:25;;;;;;;21.05;18.65;;;;;;;25.88;23.83;101592.16;4925388;28;100679;-78
2021/10/10 08:36:50;;;;;;;22.85;19.60;;;;;;;25.63;23.09;101596.75;4941881;28;96956;-78
2021/10/10 08:39:22;;;;;;;21.02;18.88;;;;;;;25.55;23.15;101590.25;4934511;28;97476;-78
2021/10/10 08:41:48;;;;;;;22.52;19.67;;;;;;;26.34;22.25;101591.19;4935150;28;97605;-78
2021/10/10 08:44:17;;;;;;;22.73;19.52;;;;;;;26.16;22.02;101588.16;4924977;28;101234;-77
2021/10/10 08:46:44;;;;;;;25.42;20.88;;;;;;;27.85;21.00;101585.75;4943230;28;97153;-77
2021/10/10 08:49:10;;;;;;;22.45;18.63;;;;;;;26.17;21.99;101588.00;4929212;28;96855;-78
2021/10/10 08:51:36;;;;;;;23.83;18.58;;;;;;;26.31;22.03;101577.97;4932645;28;97655;-79
2021/10/10 08:54:02;;;;;;;21.05;18.77;;;;;;;26.37;22.19;101574.78;4942842;28;97303;-78
2021/10/10 08:56:28;;;;;;;25.05;19.02;;;;;;;26.89;21.74;101578.63;4947728;28;96839;-79
2021/10/10 08:58:53;;;;;;;20.95;18.80;;;;;;;26.43;22.03;101582.38;4929824;28;97282;-79
2021/10/10 09:01:27;;;;;;;20.88;18.38;;;;;;;25.85;22.67;101574.44;4944077;28;97471;-79
2021/10/10 09:03:56;;;;;;;19.63;17.63;;;;;;;26.79;22.35;101575.84;4947606;28;101208;-78
2021/10/10 09:06:22;;;;;;;25.50;19.45;;;;;;;26.22;22.74;101578.72;4931146;28;97389;-78
2021/10/10 09:08:48;;;;;;;19.88;17.85;;;;;;;25.97;22.28;101576.16;4947436;28;96946;-76
2021/10/10 09:11:13;;;;;;;19.98;17.35;;;;;;;25.35;23.37;101575.66;4948231;28;97483;-79
2021/10/10 09:13:41;;;;;;;22.27;18.58;;;;;;;26.77;22.11;101569.72;4930880;28;101216;-79
2021/10/10 09:16:08;;;;;;;20.42;18.38;;;;;;;25.92;22.76;101564.91;4936243;28;96770;-78
2021/10/10 09:18:43;;;;;;;19.60;17.48;;;;;;;25.89;22.72;101566.97;4935965;28;97348;-77
2021/10/10 09:21:18;;;;;;;19.27;16.58;;;;;;;26.11;22.80;101563.44;4949718;28;97799;-79
2021/10/10 09:23:49;;;;;;;18.67;16.77;;;;;;;26.60;22.24;101557.66;4931588;28;101206;-79
2021/10/10 09:26:17;;;;;;;21.30;16.25;;;;;;;26.76;21.72;101559.06;4950943;28;97077;-79
2021/10/10 09:28:43;;;;;;;18.48;16.40;;;;;;;26.54;22.29;101554.59;4967100;28;97032;-79
2021/10/10 09:31:09;;;;;;;19.05;17.15;;;;;;;26.25;22.32;101548.88;4935450;28;100842;-78
2021/10/10 09:33:50;;;;;;;19.80;16.50;;;;;;;26.34;22.35;101550.81;4901699;28;101445;-77
2021/10/10 09:36:22;;;;;;;19.02;17.02;;;;;;;26.76;21.89;101546.47;4936708;28;97219;-80
2021/10/10 09:39:13;;;;;;;17.05;15.25;;;;;;;26.67;21.77;101541.81;4933731;28;97292;-79
2021/10/10 09:41:51;;;;;;;18.25;15.35;;;;;;;26.25;22.41;101538.13;4933001;28;97771;-80
2021/10/10 09:46:48;;;;;;;22.27;19.98;;;;;;;25.38;23.41;101540.50;4950770;28;97223;-80
2021/10/10 09:49:26;;;;;;;19.70;15.40;;;;;;;25.58;22.81;101522.81;4912747;28;97197;-80
2021/10/10 09:51:53;;;;;;;17.25;14.40;;;;;;;24.85;23.32;101539.06;4938377;28;97957;-79
2021/10/10 09:54:19;;;;;;;17.17;14.00;;;;;;;24.27;23.71;101531.75;4927876;28;98042;-80
2021/10/10 09:57:06;;;;;;;16.20;14.50;;;;;;;23.92;24.77;101532.47;4923709;28;96830;-77
2021/10/10 09:59:32;;;;;;;17.15;14.30;;;;;;;24.18;24.98;101528.75;4916797;28;97246;-82
2021/10/10 10:01:57;;;;;;;15.48;13.88;;;;;;;23.73;26.10;101527.53;4929614;28;100270;-82
2021/10/10 10:04:23;;;;;;;18.25;15.20;;;;;;;23.44;25.68;101525.03;4934607;28;100971;-83
2021/10/10 10:06:50;;;;;;;19.23;14.55;;;;;;;22.91;25.30;101516.13;4925958;28;96728;-81
2021/10/10 10:09:15;;;;;;;17.92;14.48;;;;;;;22.86;26.20;101520.06;4931594;28;97291;-81
2021/10/10 10:11:43;;;;;;;17.60;14.38;;;;;;;22.49;26.06;101512.66;4928911;28;101833;-79
2021/10/10 10:14:11;;;;;;;19.83;15.05;;;;;;;22.04;26.90;101511.94;4933803;28;101311;-82
2021/10/10 10:16:48;;;;;;;21.50;15.25;;;;;;;21.77;26.87;101514.56;4932447;28;96738;-84
2021/10/10 10:19:17;;;;;;;17.13;14.52;;;;;;;21.56;27.02;101514.06;4934721;28;96955;-83
2021/10/10 10:21:47;;;;;;;15.70;14.05;;;;;;;21.95;28.64;101515.22;4931770;28;101273;-88
2021/10/10 10:24:14;;;;;;;15.73;13.85;;;;;;;21.40;27.98;101508.78;4932400;28;101568;-82
2021/10/10 10:26:40;;;;;;;16.45;13.48;;;;;;;21.18;27.67;101505.69;4935748;28;97031;-80
2021/10/10 10:29:12;;;;;;;26.23;16.00;;;;;;;20.86;27.91;101503.09;4929302;28;96754;-80
2021/10/10 10:31:38;;;;;;;20.30;14.10;;;;;;;20.41;28.01;101504.75;4933319;28;98248;-80
2021/10/10 10:34:26;;;;;;;15.32;13.50;;;;;;;19.87;28.05;101497.09;4913394;28;100075;-80
2021/10/10 10:36:59;;;;;;;23.60;14.18;;;;;;;19.86;28.80;101502.47;4917950;28;97237;-80
2021/10/10 10:39:32;;;;;;;16.98;11.88;;;;;;;19.59;28.77;101499.47;4964603;28;96729;-80
2021/10/10 10:41:57;;;;;;;21.33;14.25;;;;;;;19.13;28.80;101501.88;4904189;28;101710;-80
2021/10/10 10:44:43;;;;;;;20.10;12.77;;;;;;;18.99;29.18;101500.78;4925999;28;97986;-80
2021/10/10 10:47:21;;;;;;;20.23;13.60;;;;;;;18.73;29.70;101495.84;4918278;28;97060;-80
2021/10/10 10:52:41;;;;;;;19.10;12.98;;;;;;;17.99;30.56;101490.56;4948245;28;101044;-79
2021/10/10 10:55:22;;;;;;;18.15;11.25;;;;;;;18.16;31.48;101477.34;4932886;28;101686;-79
2021/10/10 10:57:49;;;;;;;20.02;11.38;;;;;;;18.01;31.09;101483.41;4935078;28;97114;-79
2021/10/10 11:00:40;;;;;;;21.77;12.43;;;;;;;17.78;30.51;101484.47;4932672;28;97291;-79
2021/10/10 11:03:24;;;;;;;;;;;;;;;17.35;31.10;101489.00;4945901;28;97866;-79
2021/10/10 11:05:54;;;;;;;20.38;11.55;;;;;;;17.09;31.12;101488.31;4934672;28;101467;-79
2021/10/10 11:08:26;;;;;;;15.25;10.55;;;;;;;16.95;31.52;101488.91;4916657;28;97856;-79
2021/10/10 11:11:04;;;;;;;19.15;11.32;;;;;;;16.88;31.50;101483.94;4945322;28;98019;-80
2021/10/10 11:13:48;;;;;;;12.68;11.25;;;;;;;16.53;31.86;101479.13;4958760;28;98025;-79
2021/10/10 11:16:26;;;;;;;18.58;11.35;;;;;;;16.48;32.24;101473.13;4957834;28;98506;-79
2021/10/10 11:18:57;;;;;;;21.30;11.73;;;;;;;16.41;33.02;101468.16;4932359;28;96746;-79
2021/10/10 11:21:33;;;;;;;16.63;10.25;;;;;;;16.27;31.89;101464.28;4919598;28;97424;-79
2021/10/10 11:24:00;;;;;;;15.63;11.27;;;;;;;16.16;32.08;101466.47;4929435;28;101747;-79